sensor_id;sensor_type;location;lat;lon;timestamp;pressure;altitude;pressure_sealevel;temperature;humidity
22311;BME280;11323;49.610;11.016;2022-09-09T00:02:27;97798.31;;;23.05;49.62
22311;BME280;11323;49.610;11.016;2022-09-09T00:07:41;97806.28;;;23.05;49.82
22311;BME280;11323;49.610;11.016;2022-09-09T00:18:10;97796.13;;;23.02;49.82
22311;BME280;11323;49.610;11.016;2022-09-09T00:23:28;97785.94;;;22.98;49.74
22311;BME280;11323;49.610;11.016;2022-09-09T00:28:33;97784.34;;;22.97;49.67
22311;BME280;11323;49.610;11.016;2022-09-09T00:33:36;97788.84;;;22.97;49.92
22311;BME280;11323;49.610;11.016;2022-09-09T00:38:51;97784.56;;;22.96;49.77
22311;BME280;11323;49.610;11.016;2022-09-09T00:44:00;97785.84;;;22.93;49.53
22311;BME280;11323;49.610;11.016;2022-09-09T00:49:15;97778.34;;;22.90;49.61
22311;BME280;11323;49.610;11.016;2022-09-09T01:00:14;97783.06;;;22.88;49.66
22311;BME280;11323;49.610;11.016;2022-09-09T01:05:24;97785.97;;;22.87;49.79
22311;BME280;11323;49.610;11.016;2022-09-09T01:15:44;97783.78;;;22.83;49.64
22311;BME280;11323;49.610;11.016;2022-09-09T01:21:07;97788.50;;;22.81;49.67
22311;BME280;11323;49.610;11.016;2022-09-09T01:31:29;97788.75;;;22.80;49.60
22311;BME280;11323;49.610;11.016;2022-09-09T01:36:38;97784.47;;;22.79;49.76
22311;BME280;11323;49.610;11.016;2022-09-09T01:41:40;97787.03;;;22.74;49.79
22311;BME280;11323;49.610;11.016;2022-09-09T01:46:44;97798.47;;;22.74;49.62
22311;BME280;11323;49.610;11.016;2022-09-09T01:51:53;97783.31;;;22.75;49.63
22311;BME280;11323;49.610;11.016;2022-09-09T01:57:28;97781.72;;;22.74;49.56
22311;BME280;11323;49.610;11.016;2022-09-09T02:02:47;97779.53;;;22.71;49.56
22311;BME280;11323;49.610;11.016;2022-09-09T02:08:23;97780.56;;;22.70;49.66
22311;BME280;11323;49.610;11.016;2022-09-09T02:13:31;97771.22;;;22.67;49.70
22311;BME280;11323;49.610;11.016;2022-09-09T02:18:42;97771.44;;;22.65;49.68
22311;BME280;11323;49.610;11.016;2022-09-09T02:23:47;97782.63;;;22.67;49.52
22311;BME280;11323;49.610;11.016;2022-09-09T02:33:59;97779.88;;;22.62;49.50
22311;BME280;11323;49.610;11.016;2022-09-09T02:39:01;97771.34;;;22.60;49.41
22311;BME280;11323;49.610;11.016;2022-09-09T02:44:17;97778.25;;;22.61;49.46
22311;BME280;11323;49.610;11.016;2022-09-09T02:49:28;97776.06;;;22.58;49.53
22311;BME280;11323;49.610;11.016;2022-09-09T02:54:32;97769.72;;;22.59;49.49
22311;BME280;11323;49.610;11.016;2022-09-09T02:59:39;97773.41;;;22.58;49.66
22311;BME280;11323;49.610;11.016;2022-09-09T03:04:40;97772.81;;;22.56;49.45
22311;BME280;11323;49.610;11.016;2022-09-09T03:09:43;97772.72;;;22.51;49.60
22311;BME280;11323;49.610;11.016;2022-09-09T03:14:44;97767.41;;;22.51;49.65
22311;BME280;11323;49.610;11.016;2022-09-09T03:19:46;97761.03;;;22.52;49.42
22311;BME280;11323;49.610;11.016;2022-09-09T03:24:51;97765.78;;;22.50;49.61
22311;BME280;11323;49.610;11.016;2022-09-09T03:29:52;97762.56;;;22.48;49.67
22311;BME280;11323;49.610;11.016;2022-09-09T03:34:56;97754.00;;;22.46;49.72
22311;BME280;11323;49.610;11.016;2022-09-09T03:39:58;97755.28;;;22.43;49.62
22311;BME280;11323;49.610;11.016;2022-09-09T03:45:00;97767.53;;;22.44;49.76
22311;BME280;11323;49.610;11.016;2022-09-09T03:50:01;97770.84;;;22.40;49.56
22311;BME280;11323;49.610;11.016;2022-09-09T03:55:03;97765.53;;;22.40;49.69
22311;BME280;11323;49.610;11.016;2022-09-09T04:00:05;97763.31;;;22.36;49.62
22311;BME280;11323;49.610;11.016;2022-09-09T04:05:16;97753.75;;;22.35;49.62
22311;BME280;11323;49.610;11.016;2022-09-09T04:10:19;97755.81;;;22.33;49.58
22311;BME280;11323;49.610;11.016;2022-09-09T04:15:21;97753.16;;;22.33;49.81
22311;BME280;11323;49.610;11.016;2022-09-09T04:20:22;97750.94;;;22.30;49.63
22311;BME280;11323;49.610;11.016;2022-09-09T04:25:23;97753.06;;;22.28;49.76
22311;BME280;11323;49.610;11.016;2022-09-09T04:30:24;97765.25;;;22.29;49.77
22311;BME280;11323;49.610;11.016;2022-09-09T04:35:25;97753.50;;;22.25;49.56
22311;BME280;11323;49.610;11.016;2022-09-09T04:40:28;97759.59;;;22.26;49.85
22311;BME280;11323;49.610;11.016;2022-09-09T04:45:30;97758.00;;;22.25;49.79
22311;BME280;11323;49.610;11.016;2022-09-09T04:50:31;97764.56;;;22.22;49.59
22311;BME280;11323;49.610;11.016;2022-09-09T04:55:33;97755.47;;;22.18;49.49
22311;BME280;11323;49.610;11.016;2022-09-09T05:00:35;97764.56;;;22.22;49.72
22311;BME280;11323;49.610;11.016;2022-09-09T05:05:38;97774.84;;;22.18;49.75
22311;BME280;11323;49.610;11.016;2022-09-09T05:10:39;97778.53;;;22.17;49.79
22311;BME280;11323;49.610;11.016;2022-09-09T05:15:51;97796.88;;;22.19;49.84
22311;BME280;11323;49.610;11.016;2022-09-09T05:20:52;97798.97;;;22.17;49.81
22311;BME280;11323;49.610;11.016;2022-09-09T05:25:56;97799.41;;;22.14;49.88
22311;BME280;11323;49.610;11.016;2022-09-09T05:31:03;97804.72;;;22.14;49.84
22311;BME280;11323;49.610;11.016;2022-09-09T05:36:11;97798.59;;;22.13;50.00
22311;BME280;11323;49.610;11.016;2022-09-09T05:41:16;97797.56;;;22.14;49.68
22311;BME280;11323;49.610;11.016;2022-09-09T05:46:20;97806.56;;;22.13;49.54
22311;BME280;11323;49.610;11.016;2022-09-09T05:51:25;97814.31;;;22.15;49.79
22311;BME280;11323;49.610;11.016;2022-09-09T05:56:29;97812.44;;;22.15;49.64
22311;BME280;11323;49.610;11.016;2022-09-09T06:01:34;97796.06;;;22.06;49.54
22311;BME280;11323;49.610;11.016;2022-09-09T06:06:37;97803.91;;;22.13;49.72
22311;BME280;11323;49.610;11.016;2022-09-09T06:11:45;97808.84;;;22.10;49.79
22311;BME280;11323;49.610;11.016;2022-09-09T06:16:47;97808.41;;;22.13;49.75
22311;BME280;11323;49.610;11.016;2022-09-09T06:21:54;97808.25;;;22.08;49.82
22311;BME280;11323;49.610;11.016;2022-09-09T06:26:55;97807.22;;;22.09;49.61
22311;BME280;11323;49.610;11.016;2022-09-09T06:32:02;97813.38;;;22.09;49.69
22311;BME280;11323;49.610;11.016;2022-09-09T06:37:03;97800.44;;;22.13;49.46
22311;BME280;11323;49.610;11.016;2022-09-09T06:42:11;97804.72;;;22.14;49.63
22311;BME280;11323;49.610;11.016;2022-09-09T06:47:23;97809.78;;;22.15;49.55
22311;BME280;11323;49.610;11.016;2022-09-09T06:52:25;97818.56;;;22.16;49.37
22311;BME280;11323;49.610;11.016;2022-09-09T06:57:25;97821.28;;;21.97;49.45
22311;BME280;11323;49.610;11.016;2022-09-09T07:02:26;97831.06;;;21.29;50.69
22311;BME280;11323;49.610;11.016;2022-09-09T07:07:27;97827.13;;;21.38;52.01
22311;BME280;11323;49.610;11.016;2022-09-09T07:12:30;97823.72;;;21.31;51.59
22311;BME280;11323;49.610;11.016;2022-09-09T07:17:33;97825.06;;;21.22;51.90
22311;BME280;11323;49.610;11.016;2022-09-09T07:22:34;97824.69;;;21.18;51.47
22311;BME280;11323;49.610;11.016;2022-09-09T07:27:34;97833.66;;;21.17;51.64
22311;BME280;11323;49.610;11.016;2022-09-09T07:32:35;97827.47;;;21.23;51.57
22311;BME280;11323;49.610;11.016;2022-09-09T07:37:37;97836.81;;;21.44;51.09
22311;BME280;11323;49.610;11.016;2022-09-09T07:42:38;97834.47;;;21.36;50.84
22311;BME280;11323;49.610;11.016;2022-09-09T07:47:39;97835.28;;;21.55;50.60
22311;BME280;11323;49.610;11.016;2022-09-09T07:52:39;97828.59;;;21.71;50.25
22311;BME280;11323;49.610;11.016;2022-09-09T07:57:41;97837.00;;;21.80;49.70
22311;BME280;11323;49.610;11.016;2022-09-09T08:02:42;97843.50;;;21.84;50.04
22311;BME280;11323;49.610;11.016;2022-09-09T08:07:44;97842.25;;;21.87;49.91
22311;BME280;11323;49.610;11.016;2022-09-09T08:12:46;97836.50;;;21.90;49.78
22311;BME280;11323;49.610;11.016;2022-09-09T08:17:46;97845.63;;;21.94;50.70
22311;BME280;11323;49.610;11.016;2022-09-09T08:22:47;97850.59;;;22.02;50.37
22311;BME280;11323;49.610;11.016;2022-09-09T08:27:48;97846.59;;;22.12;50.12
22311;BME280;11323;49.610;11.016;2022-09-09T08:32:49;97849.16;;;22.30;50.20
22311;BME280;11323;49.610;11.016;2022-09-09T08:37:54;97846.06;;;22.33;50.16
22311;BME280;11323;49.610;11.016;2022-09-09T08:42:57;97848.81;;;22.27;49.72
22311;BME280;11323;49.610;11.016;2022-09-09T08:48:21;97846.53;;;22.30;49.74
22311;BME280;11323;49.610;11.016;2022-09-09T08:53:28;97853.09;;;22.28;49.66
22311;BME280;11323;49.610;11.016;2022-09-09T08:58:35;97841.22;;;22.30;49.34
22311;BME280;11323;49.610;11.016;2022-09-09T09:04:05;97847.69;;;22.34;49.17
22311;BME280;11323;49.610;11.016;2022-09-09T09:14:42;97837.22;;;22.40;49.03
22311;BME280;11323;49.610;11.016;2022-09-09T09:19:45;97843.09;;;22.42;49.18
22311;BME280;11323;49.610;11.016;2022-09-09T09:25:19;97837.00;;;22.41;48.96
22311;BME280;11323;49.610;11.016;2022-09-09T09:30:24;97839.72;;;22.34;49.02
22311;BME280;11323;49.610;11.016;2022-09-09T09:35:25;97836.13;;;22.29;49.05
22311;BME280;11323;49.610;11.016;2022-09-09T09:40:26;97827.38;;;22.28;49.15
22311;BME280;11323;49.610;11.016;2022-09-09T09:45:32;97823.22;;;22.32;48.96
22311;BME280;11323;49.610;11.016;2022-09-09T09:50:33;97816.88;;;22.33;48.92
22311;BME280;11323;49.610;11.016;2022-09-09T09:55:36;97821.28;;;22.40;48.60
22311;BME280;11323;49.610;11.016;2022-09-09T10:00:48;97805.22;;;22.34;48.83
22311;BME280;11323;49.610;11.016;2022-09-09T10:05:49;97814.22;;;22.33;48.82
22311;BME280;11323;49.610;11.016;2022-09-09T10:32:26;97788.38;;;22.41;48.77
22311;BME280;11323;49.610;11.016;2022-09-09T10:59:18;97783.41;;;22.32;48.73
22311;BME280;11323;49.610;11.016;2022-09-09T11:04:27;97783.53;;;22.37;48.94
22311;BME280;11323;49.610;11.016;2022-09-09T11:09:35;97774.53;;;22.39;48.56
22311;BME280;11323;49.610;11.016;2022-09-09T11:14:53;97790.84;;;22.42;48.42
22311;BME280;11323;49.610;11.016;2022-09-09T11:19:56;97777.31;;;22.44;48.45
22311;BME280;11323;49.610;11.016;2022-09-09T11:25:33;97782.03;;;22.42;48.34
22311;BME280;11323;49.610;11.016;2022-09-09T11:41:04;97749.84;;;22.50;47.99
22311;BME280;11323;49.610;11.016;2022-09-09T11:46:07;97753.06;;;22.52;47.97
22311;BME280;11323;49.610;11.016;2022-09-09T11:51:11;97737.38;;;22.50;47.53
22311;BME280;11323;49.610;11.016;2022-09-09T11:56:13;97748.34;;;22.54;47.14
22311;BME280;11323;49.610;11.016;2022-09-09T12:01:34;97744.88;;;22.54;47.11
22311;BME280;11323;49.610;11.016;2022-09-09T12:06:49;97752.84;;;22.54;47.28
22311;BME280;11323;49.610;11.016;2022-09-09T12:11:52;97740.03;;;22.50;47.21
22311;BME280;11323;49.610;11.016;2022-09-09T12:16:53;97748.81;;;22.51;47.08
22311;BME280;11323;49.610;11.016;2022-09-09T12:22:07;97747.75;;;22.52;47.21
22311;BME280;11323;49.610;11.016;2022-09-09T12:27:20;97738.66;;;22.48;47.24
22311;BME280;11323;49.610;11.016;2022-09-09T12:32:25;97737.13;;;22.52;47.01
22311;BME280;11323;49.610;11.016;2022-09-09T12:37:50;97727.22;;;22.47;47.05
22311;BME280;11323;49.610;11.016;2022-09-09T12:42:54;97755.63;;;22.47;46.87
22311;BME280;11323;49.610;11.016;2022-09-09T12:48:09;97773.63;;;22.45;47.62
22311;BME280;11323;49.610;11.016;2022-09-09T12:53:26;97806.38;;;22.39;47.70
22311;BME280;11323;49.610;11.016;2022-09-09T12:58:29;97804.53;;;22.27;47.59
22311;BME280;11323;49.610;11.016;2022-09-09T13:03:42;97838.09;;;22.21;47.68
22311;BME280;11323;49.610;11.016;2022-09-09T13:08:43;97839.81;;;22.16;48.22
22311;BME280;11323;49.610;11.016;2022-09-09T13:13:50;97870.84;;;22.15;48.15
22311;BME280;11323;49.610;11.016;2022-09-09T13:18:51;97848.81;;;22.15;48.56
22311;BME280;11323;49.610;11.016;2022-09-09T13:23:52;97829.63;;;22.13;48.84
22311;BME280;11323;49.610;11.016;2022-09-09T13:28:53;97801.63;;;22.17;48.97
22311;BME280;11323;49.610;11.016;2022-09-09T13:33:55;97788.47;;;22.22;48.78
22311;BME280;11323;49.610;11.016;2022-09-09T13:38:57;97770.47;;;22.24;48.98
22311;BME280;11323;49.610;11.016;2022-09-09T13:44:00;97769.44;;;22.25;49.11
22311;BME280;11323;49.610;11.016;2022-09-09T13:54:12;97754.31;;;22.26;49.50
22311;BME280;11323;49.610;11.016;2022-09-09T13:59:15;97741.28;;;22.24;50.27
22311;BME280;11323;49.610;11.016;2022-09-09T14:04:16;97741.50;;;22.23;50.36
22311;BME280;11323;49.610;11.016;2022-09-09T14:09:17;97747.38;;;22.25;50.36
22311;BME280;11323;49.610;11.016;2022-09-09T14:14:17;97742.66;;;22.27;50.57
22311;BME280;11323;49.610;11.016;2022-09-09T14:19:18;97728.00;;;22.24;50.75
22311;BME280;11323;49.610;11.016;2022-09-09T14:24:18;97745.09;;;22.28;50.85
22311;BME280;11323;49.610;11.016;2022-09-09T14:29:19;97744.03;;;22.29;50.95
22311;BME280;11323;49.610;11.016;2022-09-09T14:34:20;97749.72;;;22.33;51.06
22311;BME280;11323;49.610;11.016;2022-09-09T14:39:20;97736.19;;;22.34;51.22
22311;BME280;11323;49.610;11.016;2022-09-09T14:44:20;97734.34;;;22.35;51.26
22311;BME280;11323;49.610;11.016;2022-09-09T14:49:21;97730.09;;;22.34;51.23
22311;BME280;11323;49.610;11.016;2022-09-09T14:54:22;97737.00;;;22.35;51.48
22311;BME280;11323;49.610;11.016;2022-09-09T14:59:23;97741.75;;;22.33;51.35
22311;BME280;11323;49.610;11.016;2022-09-09T15:04:23;97755.22;;;22.31;51.53
22311;BME280;11323;49.610;11.016;2022-09-09T15:09:24;97758.47;;;22.33;51.59
22311;BME280;11323;49.610;11.016;2022-09-09T15:14:24;97748.78;;;22.27;51.69
22311;BME280;11323;49.610;11.016;2022-09-09T15:19:26;97758.91;;;22.30;51.54
22311;BME280;11323;49.610;11.016;2022-09-09T15:24:26;97746.03;;;22.34;51.67
22311;BME280;11323;49.610;11.016;2022-09-09T15:29:27;97748.66;;;22.34;51.80
22311;BME280;11323;49.610;11.016;2022-09-09T15:34:28;97736.19;;;22.34;51.73
22311;BME280;11323;49.610;11.016;2022-09-09T15:39:28;97732.97;;;22.32;51.63
22311;BME280;11323;49.610;11.016;2022-09-09T15:44:28;97730.88;;;22.34;51.90
22311;BME280;11323;49.610;11.016;2022-09-09T15:49:29;97723.16;;;22.33;51.88
22311;BME280;11323;49.610;11.016;2022-09-09T15:54:35;97721.53;;;22.32;52.14
22311;BME280;11323;49.610;11.016;2022-09-09T15:59:36;97730.31;;;22.32;51.93
22311;BME280;11323;49.610;11.016;2022-09-09T16:04:37;97722.34;;;22.32;52.31
22311;BME280;11323;49.610;11.016;2022-09-09T16:09:37;97719.47;;;22.34;52.94
22311;BME280;11323;49.610;11.016;2022-09-09T16:14:38;97724.41;;;22.30;52.79
22311;BME280;11323;49.610;11.016;2022-09-09T16:19:38;97728.22;;;22.34;52.46
22311;BME280;11323;49.610;11.016;2022-09-09T16:24:39;97734.56;;;22.33;52.07
22311;BME280;11323;49.610;11.016;2022-09-09T16:29:39;97736.19;;;22.34;51.81
22311;BME280;11323;49.610;11.016;2022-09-09T16:34:39;97746.22;;;22.32;51.72
22311;BME280;11323;49.610;11.016;2022-09-09T16:39:40;97750.50;;;22.33;51.35
22311;BME280;11323;49.610;11.016;2022-09-09T16:44:40;97760.31;;;22.33;51.32
22311;BME280;11323;49.610;11.016;2022-09-09T16:49:41;97766.88;;;22.30;51.08
22311;BME280;11323;49.610;11.016;2022-09-09T16:54:42;97778.78;;;22.28;51.21
22311;BME280;11323;49.610;11.016;2022-09-09T16:59:42;97783.28;;;22.27;51.33
22311;BME280;11323;49.610;11.016;2022-09-09T17:04:42;97788.59;;;22.27;51.24
22311;BME280;11323;49.610;11.016;2022-09-09T17:09:43;97797.94;;;22.30;51.28
22311;BME280;11323;49.610;11.016;2022-09-09T17:14:45;97800.25;;;22.26;51.14
22311;BME280;11323;49.610;11.016;2022-09-09T17:19:46;97806.34;;;22.27;51.25
22311;BME280;11323;49.610;11.016;2022-09-09T17:24:47;97818.81;;;22.26;51.30
22311;BME280;11323;49.610;11.016;2022-09-09T17:29:47;97824.13;;;22.26;51.13
22311;BME280;11323;49.610;11.016;2022-09-09T17:34:47;97822.53;;;22.25;51.13
22311;BME280;11323;49.610;11.016;2022-09-09T17:39:48;97823.56;;;22.24;51.09
22311;BME280;11323;49.610;11.016;2022-09-09T17:44:48;97816.88;;;22.21;51.07
22311;BME280;11323;49.610;11.016;2022-09-09T17:49:48;97808.91;;;22.21;51.15
22311;BME280;11323;49.610;11.016;2022-09-09T17:54:49;97818.09;;;22.19;51.11
22311;BME280;11323;49.610;11.016;2022-09-09T17:59:49;97828.97;;;22.17;51.14
22311;BME280;11323;49.610;11.016;2022-09-09T18:04:50;97829.78;;;22.18;51.19
22311;BME280;11323;49.610;11.016;2022-09-09T18:09:50;97832.88;;;22.15;50.98
22311;BME280;11323;49.610;11.016;2022-09-09T18:14:50;97840.41;;;22.18;50.98
22311;BME280;11323;49.610;11.016;2022-09-09T18:19:51;97845.13;;;22.16;50.97
22311;BME280;11323;49.610;11.016;2022-09-09T18:24:51;97845.13;;;22.16;51.08
22311;BME280;11323;49.610;11.016;2022-09-09T18:29:52;97855.72;;;22.16;51.10
22311;BME280;11323;49.610;11.016;2022-09-09T18:34:52;97872.09;;;22.13;50.98
22311;BME280;11323;49.610;11.016;2022-09-09T18:39:55;97885.00;;;22.09;51.13
22311;BME280;11323;49.610;11.016;2022-09-09T18:44:55;97878.44;;;22.12;51.02
22311;BME280;11323;49.610;11.016;2022-09-09T18:49:55;97862.16;;;22.08;50.82
22311;BME280;11323;49.610;11.016;2022-09-09T18:54:56;97867.31;;;22.03;50.93
22311;BME280;11323;49.610;11.016;2022-09-09T18:59:56;97883.63;;;22.06;50.93
22311;BME280;11323;49.610;11.016;2022-09-09T19:04:56;97879.56;;;22.04;51.27
22311;BME280;11323;49.610;11.016;2022-09-09T19:09:57;97891.44;;;22.01;51.18
22311;BME280;11323;49.610;11.016;2022-09-09T19:14:57;97903.69;;;22.02;51.32
22311;BME280;11323;49.610;11.016;2022-09-09T19:19:57;97908.97;;;22.02;51.39
22311;BME280;11323;49.610;11.016;2022-09-09T19:24:58;97904.94;;;22.00;51.28
22311;BME280;11323;49.610;11.016;2022-09-09T19:29:59;97917.97;;;22.01;51.35
22311;BME280;11323;49.610;11.016;2022-09-09T19:34:59;97922.50;;;22.01;51.54
22311;BME280;11323;49.610;11.016;2022-09-09T19:40:01;97922.09;;;21.97;51.56
22311;BME280;11323;49.610;11.016;2022-09-09T19:45:02;97935.16;;;21.99;51.32
22311;BME280;11323;49.610;11.016;2022-09-09T19:50:03;97945.53;;;22.00;51.47
22311;BME280;11323;49.610;11.016;2022-09-09T19:55:05;97941.25;;;21.99;51.43
22311;BME280;11323;49.610;11.016;2022-09-09T20:00:06;97932.72;;;21.97;51.24
22311;BME280;11323;49.610;11.016;2022-09-09T20:05:12;97941.69;;;21.96;51.53
22311;BME280;11323;49.610;11.016;2022-09-09T20:10:12;97950.72;;;21.95;51.54
22311;BME280;11323;49.610;11.016;2022-09-09T20:15:13;97943.56;;;21.96;51.54
22311;BME280;11323;49.610;11.016;2022-09-09T20:20:13;97937.06;;;21.91;51.45
22311;BME280;11323;49.610;11.016;2022-09-09T20:25:14;97937.66;;;21.94;51.59
22311;BME280;11323;49.610;11.016;2022-09-09T20:30:14;97942.00;;;21.88;51.30
22311;BME280;11323;49.610;11.016;2022-09-09T20:35:15;97949.53;;;21.91;51.43
22311;BME280;11323;49.610;11.016;2022-09-09T20:40:15;97954.69;;;21.86;51.87
22311;BME280;11323;49.610;11.016;2022-09-09T20:45:16;97944.06;;;21.86;51.91
22311;BME280;11323;49.610;11.016;2022-09-09T20:50:16;97948.34;;;21.87;51.50
22311;BME280;11323;49.610;11.016;2022-09-09T20:55:17;97952.03;;;21.86;51.26
22311;BME280;11323;49.610;11.016;2022-09-09T21:00:18;97945.09;;;21.85;51.22
22311;BME280;11323;49.610;11.016;2022-09-09T21:05:18;97937.38;;;21.83;51.15
22311;BME280;11323;49.610;11.016;2022-09-09T21:10:18;97945.56;;;21.82;51.38
22311;BME280;11323;49.610;11.016;2022-09-09T21:15:19;97932.31;;;21.82;51.07
22311;BME280;11323;49.610;11.016;2022-09-09T21:20:19;97928.81;;;21.81;51.27
22311;BME280;11323;49.610;11.016;2022-09-09T21:25:20;97924.78;;;21.79;51.37
22311;BME280;11323;49.610;11.016;2022-09-09T21:30:21;97930.31;;;21.77;51.18
22311;BME280;11323;49.610;11.016;2022-09-09T21:35:21;97929.72;;;21.75;51.37
22311;BME280;11323;49.610;11.016;2022-09-09T21:40:22;97947.25;;;21.76;51.14
22311;BME280;11323;49.610;11.016;2022-09-09T21:45:22;97945.63;;;21.75;51.13
22311;BME280;11323;49.610;11.016;2022-09-09T21:50:25;97950.94;;;21.75;51.08
22311;BME280;11323;49.610;11.016;2022-09-09T21:55:25;97949.31;;;21.74;51.00
22311;BME280;11323;49.610;11.016;2022-09-09T22:00:25;97939.97;;;21.71;51.12
22311;BME280;11323;49.610;11.016;2022-09-09T22:05:26;97959.56;;;21.70;51.12
22311;BME280;11323;49.610;11.016;2022-09-09T22:10:26;97963.25;;;21.69;52.09
22311;BME280;11323;49.610;11.016;2022-09-09T22:15:27;97961.63;;;21.68;52.58
22311;BME280;11323;49.610;11.016;2022-09-09T22:20:31;97962.66;;;21.67;52.59
22311;BME280;11323;49.610;11.016;2022-09-09T22:25:35;97961.63;;;21.68;52.72
22311;BME280;11323;49.610;11.016;2022-09-09T22:30:36;97949.22;;;21.62;52.80
22311;BME280;11323;49.610;11.016;2022-09-09T22:35:39;97957.13;;;21.69;52.85
22311;BME280;11323;49.610;11.016;2022-09-09T22:40:41;97954.34;;;21.64;52.87
22311;BME280;11323;49.610;11.016;2022-09-09T22:45:42;97969.34;;;21.70;52.95
22311;BME280;11323;49.610;11.016;2022-09-09T22:50:43;97975.47;;;21.70;52.79
22311;BME280;11323;49.610;11.016;2022-09-09T22:55:58;97970.97;;;21.71;53.13
22311;BME280;11323;49.610;11.016;2022-09-09T23:00:59;97970.19;;;21.70;53.03
22311;BME280;11323;49.610;11.016;2022-09-09T23:06:00;97955.88;;;21.71;53.05
22311;BME280;11323;49.610;11.016;2022-09-09T23:11:06;97963.00;;;21.71;53.21
22311;BME280;11323;49.610;11.016;2022-09-09T23:16:13;97965.66;;;21.71;53.17
22311;BME280;11323;49.610;11.016;2022-09-09T23:21:14;97963.00;;;21.71;53.43
22311;BME280;11323;49.610;11.016;2022-09-09T23:26:15;97964.88;;;21.70;53.31
22311;BME280;11323;49.610;11.016;2022-09-09T23:31:20;97972.81;;;21.70;53.03
22311;BME280;11323;49.610;11.016;2022-09-09T23:36:22;97951.81;;;21.69;53.10
22311;BME280;11323;49.610;11.016;2022-09-09T23:41:24;97959.78;;;21.69;53.00
22311;BME280;11323;49.610;11.016;2022-09-09T23:46:25;97951.00;;;21.68;52.97
22311;BME280;11323;49.610;11.016;2022-09-09T23:51:29;97947.34;;;21.69;53.05
22311;BME280;11323;49.610;11.016;2022-09-09T23:56:36;97949.41;;;21.67;53.28
